Time;durP1;ratioP1;P1;durP2;ratioP2;P2;SDS_P1;SDS_P2;PMS_P1;PMS_P2;Temp;Humidity;BMP_temperature;BMP_pressure;BME280_temperature;BME280_humidity;BME280_pressure;Samples;Min_cycle;Max_cycle;Signal;HPM_P1;HPM_P2
2023/05/12 00:01:54;;;;;;;8.18;3.15;;;11.80;99.90;;;;;;5048024;28;20036;-80
2023/05/12 00:04:20;;;;;;;6.57;2.88;;;11.80;99.90;;;;;;5081114;28;20090;-79
2023/05/12 00:06:45;;;;;;;9.48;3.08;;;11.80;99.90;;;;;;5061268;28;20055;-79
2023/05/12 00:09:11;;;;;;;9.68;3.40;;;11.80;99.90;;;;;;5065639;28;20090;-79
2023/05/12 00:11:37;;;;;;;13.07;3.22;;;11.80;99.90;;;;;;5064696;28;20036;-79
2023/05/12 00:14:03;;;;;;;10.00;3.72;;;11.80;99.90;;;;;;5063007;28;20039;-79
2023/05/12 00:16:28;;;;;;;11.57;3.65;;;11.90;99.90;;;;;;5047855;28;20394;-79
2023/05/12 00:18:54;;;;;;;10.63;3.72;;;11.90;99.90;;;;;;5043268;28;20075;-79
2023/05/12 00:21:20;;;;;;;11.93;4.38;;;11.80;99.90;;;;;;5043987;28;20086;-79
2023/05/12 00:23:45;;;;;;;8.82;4.40;;;11.80;99.90;;;;;;5062204;28;20037;-79
2023/05/12 00:26:11;;;;;;;12.57;5.05;;;11.90;99.90;;;;;;5061339;28;20123;-78
2023/05/12 00:28:36;;;;;;;14.85;4.38;;;11.90;99.90;;;;;;5063992;28;20036;-79
2023/05/12 00:31:02;;;;;;;11.80;4.18;;;11.90;99.90;;;;;;5041806;28;20047;-79
2023/05/12 00:33:29;;;;;;;12.75;3.88;;;11.80;99.90;;;;;;5061586;28;20051;-79
2023/05/12 00:35:55;;;;;;;9.52;4.47;;;11.80;99.90;;;;;;5061166;28;20115;-79
2023/05/12 00:38:21;;;;;;;15.48;4.95;;;11.80;99.90;;;;;;5095295;28;20062;-79
2023/05/12 00:40:46;;;;;;;11.30;4.63;;;11.80;99.90;;;;;;5061598;28;20613;-80
2023/05/12 00:43:12;;;;;;;16.05;5.90;;;11.80;99.90;;;;;;5055837;28;20627;-79
2023/05/12 00:45:38;;;;;;;13.10;5.15;;;11.80;99.90;;;;;;5065391;28;20060;-79
2023/05/12 00:48:05;;;;;;;12.57;4.47;;;11.80;99.90;;;;;;5060880;28;20494;-79
2023/05/12 00:50:31;;;;;;;10.52;4.45;;;11.80;99.90;;;;;;5047829;28;20110;-79
2023/05/12 00:52:59;;;;;;;17.55;5.22;;;11.80;99.90;;;;;;5063128;28;20032;-79
2023/05/12 00:55:25;;;;;;;11.75;4.32;;;11.90;99.90;;;;;;5047681;28;20115;-79
2023/05/12 00:57:51;;;;;;;14.02;5.00;;;11.90;99.90;;;;;;5041342;28;20033;-79
2023/05/12 01:00:17;;;;;;;16.90;5.13;;;11.90;99.90;;;;;;5063677;28;20036;-79
2023/05/12 01:02:44;;;;;;;13.02;4.85;;;11.90;99.90;;;;;;5094370;28;20121;-80
2023/05/12 01:05:10;;;;;;;15.13;5.53;;;11.90;99.90;;;;;;5063126;28;20417;-79
2023/05/12 01:07:37;;;;;;;11.80;5.07;;;11.90;99.90;;;;;;5040518;28;20490;-79
2023/05/12 01:10:03;;;;;;;16.75;5.50;;;11.90;99.90;;;;;;5063677;28;20526;-79
2023/05/12 01:12:31;;;;;;;13.77;5.28;;;11.90;99.90;;;;;;5063479;28;20031;-79
2023/05/12 01:14:57;;;;;;;16.42;4.85;;;11.90;99.90;;;;;;5062477;28;20115;-80
2023/05/12 01:17:32;;;;;;;15.65;5.32;;;11.90;99.90;;;;;;5063318;28;20040;-79
2023/05/12 01:20:00;;;;;;;16.57;5.30;;;11.90;99.90;;;;;;5073220;28;20040;-79
2023/05/12 01:22:30;;;;;;;13.75;4.80;;;11.90;99.90;;;;;;5062293;28;20290;-79
2023/05/12 01:25:04;;;;;;;17.88;5.13;;;11.90;99.90;;;;;;5064012;28;20071;-79
2023/05/12 01:27:31;;;;;;;14.65;5.75;;;11.90;99.90;;;;;;5047010;28;20094;-79
2023/05/12 01:29:59;;;;;;;15.57;4.95;;;11.90;99.90;;;;;;5059815;28;20040;-79
2023/05/12 01:32:25;;;;;;;17.13;6.75;;;11.90;99.90;;;;;;5061828;28;20478;-79
2023/05/12 01:34:51;;;;;;;16.50;4.72;;;12.00;99.90;;;;;;5047404;28;20032;-79
2023/05/12 01:37:17;;;;;;;19.60;6.05;;;11.90;99.90;;;;;;5044228;28;20736;-80
2023/05/12 01:39:43;;;;;;;15.98;5.00;;;11.90;99.90;;;;;;5061082;28;20151;-79
2023/05/12 01:42:09;;;;;;;17.90;6.15;;;11.90;99.90;;;;;;5040800;28;20032;-79
2023/05/12 01:44:35;;;;;;;14.05;4.82;;;11.90;99.90;;;;;;5062134;28;20039;-79
2023/05/12 01:47:00;;;;;;;15.68;5.25;;;11.90;99.90;;;;;;5063232;28;20472;-80
2023/05/12 01:49:26;;;;;;;18.23;5.78;;;11.90;99.90;;;;;;5045766;28;20036;-79
2023/05/12 01:51:52;;;;;;;17.02;5.35;;;12.00;99.90;;;;;;5061868;28;20116;-79
2023/05/12 01:54:18;;;;;;;16.85;5.93;;;12.00;99.90;;;;;;5059694;28;20041;-79
2023/05/12 01:56:43;;;;;;;19.98;6.15;;;12.00;99.90;;;;;;5044936;28;20036;-79
2023/05/12 01:59:09;;;;;;;18.50;5.72;;;12.00;99.90;;;;;;5036418;28;20444;-79
2023/05/12 02:01:35;;;;;;;17.95;5.75;;;12.00;99.90;;;;;;5062182;28;20517;-79
2023/05/12 02:04:02;;;;;;;13.93;5.28;;;12.00;99.90;;;;;;5059990;28;20410;-79
2023/05/12 02:06:28;;;;;;;15.85;5.97;;;12.00;99.90;;;;;;5062596;28;20040;-79
2023/05/12 02:08:54;;;;;;;17.02;6.22;;;12.00;99.90;;;;;;5062676;28;20037;-79
2023/05/12 02:11:20;;;;;;;17.38;6.03;;;12.00;99.90;;;;;;5060663;28;20037;-80
2023/05/12 02:13:46;;;;;;;21.23;6.65;;;12.00;99.90;;;;;;5063395;28;20120;-79
2023/05/12 02:16:12;;;;;;;18.08;5.80;;;12.00;99.90;;;;;;5056298;28;20167;-79
2023/05/12 02:18:38;;;;;;;20.88;7.20;;;12.00;99.90;;;;;;5065402;28;20702;-79
2023/05/12 02:21:04;;;;;;;17.15;6.40;;;12.00;99.90;;;;;;5048084;28;20116;-79
2023/05/12 02:23:30;;;;;;;19.20;6.70;;;12.00;99.90;;;;;;5046838;28;20039;-79
2023/05/12 02:25:56;;;;;;;14.90;5.68;;;12.00;99.90;;;;;;5063222;28;20049;-78
2023/05/12 02:28:21;;;;;;;19.25;6.28;;;12.00;99.90;;;;;;5061823;28;20044;-79
2023/05/12 02:30:49;;;;;;;18.25;6.68;;;12.00;99.90;;;;;;5061930;28;20044;-79
2023/05/12 02:33:19;;;;;;;21.85;7.53;;;12.00;99.90;;;;;;5045448;28;20033;-79
2023/05/12 02:35:45;;;;;;;20.00;6.72;;;12.00;99.90;;;;;;5046966;28;20040;-79
2023/05/12 02:38:11;;;;;;;24.40;7.38;;;12.00;99.90;;;;;;5065702;28;20059;-79
2023/05/12 02:40:37;;;;;;;25.15;8.18;;;12.00;99.90;;;;;;5070128;28;20545;-79
2023/05/12 02:43:03;;;;;;;18.50;6.00;;;12.00;99.90;;;;;;5063822;28;20055;-79
2023/05/12 02:45:29;;;;;;;23.25;6.72;;;12.00;99.90;;;;;;5068497;28;20044;-79
2023/05/12 02:47:54;;;;;;;19.52;6.78;;;12.00;99.90;;;;;;5059693;28;20045;-79
2023/05/12 02:50:20;;;;;;;17.33;6.88;;;12.00;99.90;;;;;;5040153;28;20402;-79
2023/05/12 02:52:46;;;;;;;17.77;5.88;;;12.00;99.90;;;;;;5041747;28;20445;-79
2023/05/12 02:55:12;;;;;;;16.15;6.03;;;12.00;99.90;;;;;;5052873;28;20043;-79
2023/05/12 02:57:37;;;;;;;23.05;7.10;;;12.00;99.90;;;;;;5042677;28;20041;-79
2023/05/12 03:00:04;;;;;;;23.45;8.15;;;12.00;99.90;;;;;;5064773;28;20033;-79
2023/05/12 03:02:40;;;;;;;18.98;6.93;;;12.00;99.90;;;;;;5064242;28;20067;-79
2023/05/12 03:05:06;;;;;;;22.05;8.60;;;12.00;99.90;;;;;;5069147;28;20036;-79
2023/05/12 03:07:32;;;;;;;19.52;6.43;;;12.00;99.90;;;;;;5053557;28;20087;-80
2023/05/12 03:09:57;;;;;;;19.58;6.65;;;12.00;99.90;;;;;;5060727;28;20514;-80
2023/05/12 03:12:24;;;;;;;22.52;7.30;;;12.00;99.90;;;;;;5061209;28;20044;-79
2023/05/12 03:14:50;;;;;;;21.60;6.88;;;12.00;99.90;;;;;;5102162;28;20382;-79
2023/05/12 03:17:16;;;;;;;22.05;6.47;;;12.00;99.90;;;;;;5066755;28;20028;-79
2023/05/12 03:19:41;;;;;;;21.45;6.95;;;12.10;99.90;;;;;;5068077;28;20040;-79
2023/05/12 03:22:07;;;;;;;18.52;6.55;;;12.10;99.90;;;;;;5066351;28;20097;-79
2023/05/12 03:24:33;;;;;;;20.20;7.00;;;12.10;99.90;;;;;;5052466;28;20534;-79
2023/05/12 03:26:59;;;;;;;19.23;6.78;;;12.10;99.90;;;;;;5061393;28;20052;-79
2023/05/12 03:29:25;;;;;;;22.17;7.70;;;12.10;99.90;;;;;;5047602;28;20048;-79
2023/05/12 03:31:51;;;;;;;21.88;7.00;;;12.00;99.90;;;;;;5085131;28;20044;-80
2023/05/12 03:34:17;;;;;;;17.23;6.03;;;12.00;99.90;;;;;;5069533;28;20036;-79
2023/05/12 03:36:42;;;;;;;23.60;6.47;;;12.00;99.90;;;;;;5069140;28;20040;-79
2023/05/12 03:39:08;;;;;;;20.92;7.47;;;12.10;99.90;;;;;;5069880;28;20405;-79
2023/05/12 03:41:34;;;;;;;18.75;6.15;;;12.10;99.90;;;;;;5068094;28;20496;-79
2023/05/12 03:44:00;;;;;;;20.83;7.93;;;12.10;99.90;;;;;;5067165;28;20047;-79
2023/05/12 03:46:26;;;;;;;22.40;7.78;;;12.10;99.90;;;;;;5066988;28;20048;-79
2023/05/12 03:48:52;;;;;;;26.70;7.55;;;12.10;99.90;;;;;;5069001;28;20040;-79
2023/05/12 03:51:17;;;;;;;20.42;6.95;;;12.10;99.90;;;;;;5069247;28;20048;-79
2023/05/12 03:53:45;;;;;;;25.17;7.40;;;12.10;99.90;;;;;;5068883;28;20505;-79
2023/05/12 03:56:11;;;;;;;22.27;6.95;;;12.10;99.90;;;;;;5065214;28;20116;-79
2023/05/12 03:58:36;;;;;;;21.55;7.47;;;12.00;99.90;;;;;;5041979;28;20111;-79
2023/05/12 04:01:02;;;;;;;16.55;6.25;;;12.10;99.90;;;;;;5065103;28;20757;-79
2023/05/12 04:03:28;;;;;;;26.48;8.20;;;12.10;99.90;;;;;;5050104;28;20047;-79
2023/05/12 04:06:02;;;;;;;22.23;6.95;;;12.10;99.90;;;;;;5064906;28;20048;-79
2023/05/12 04:08:27;;;;;;;22.75;6.85;;;12.10;99.90;;;;;;5063958;28;20052;-79
2023/05/12 04:10:57;;;;;;;20.35;7.20;;;12.10;99.90;;;;;;5033238;28;20052;-79
2023/05/12 04:13:24;;;;;;;20.70;7.25;;;12.10;99.90;;;;;;5050353;28;20657;-79
2023/05/12 04:15:50;;;;;;;22.27;7.03;;;12.10;99.90;;;;;;5059399;28;20043;-79
2023/05/12 04:18:16;;;;;;;28.27;8.25;;;12.10;99.90;;;;;;5063699;28;20040;-79
2023/05/12 04:20:43;;;;;;;22.85;7.53;;;12.10;99.90;;;;;;5046919;28;20032;-79
2023/05/12 04:23:09;;;;;;;24.13;7.82;;;12.10;99.90;;;;;;5050821;28;20284;-79
2023/05/12 04:25:39;;;;;;;27.80;7.85;;;12.10;99.90;;;;;;5068482;28;20067;-79
2023/05/12 04:28:05;;;;;;;24.50;7.47;;;12.10;99.90;;;;;;5066514;28;20064;-79
2023/05/12 04:30:31;;;;;;;23.45;6.60;;;12.20;99.90;;;;;;5065023;28;20048;-79
2023/05/12 04:32:56;;;;;;;24.42;7.63;;;12.20;99.90;;;;;;5068245;28;20491;-79
2023/05/12 04:35:22;;;;;;;22.38;7.53;;;12.20;99.90;;;;;;5067241;28;20498;-79
2023/05/12 04:37:48;;;;;;;23.30;7.43;;;12.20;99.90;;;;;;5068015;28;20652;-79
2023/05/12 04:40:13;;;;;;;21.70;7.22;;;12.20;99.90;;;;;;5068138;28;20493;-79
2023/05/12 04:42:39;;;;;;;21.73;7.30;;;12.20;99.90;;;;;;5034783;28;20052;-79
2023/05/12 04:45:06;;;;;;;22.55;6.53;;;12.20;99.90;;;;;;5036032;28;20477;-79
2023/05/12 04:47:32;;;;;;;20.88;6.93;;;12.20;99.90;;;;;;5048038;28;20553;-79
2023/05/12 04:49:57;;;;;;;25.20;7.78;;;12.20;99.90;;;;;;5054276;28;20048;-79
2023/05/12 04:52:23;;;;;;;18.35;6.43;;;12.30;99.90;;;;;;5067779;28;20379;-79
2023/05/12 04:54:49;;;;;;;20.08;5.68;;;12.30;99.90;;;;;;5087355;28;20037;-79
2023/05/12 04:57:15;;;;;;;21.63;6.53;;;12.30;99.90;;;;;;5065665;28;20641;-79
2023/05/12 04:59:41;;;;;;;23.15;6.63;;;12.20;99.90;;;;;;5064551;28;20482;-79
2023/05/12 05:02:10;;;;;;;21.40;7.30;;;12.30;99.90;;;;;;5066315;28;20050;-80
2023/05/12 05:04:36;;;;;;;20.98;7.13;;;12.20;99.90;;;;;;5051365;28;20564;-79
2023/05/12 05:07:02;;;;;;;24.67;6.93;;;12.20;99.90;;;;;;5067204;28;20123;-79
2023/05/12 05:09:28;;;;;;;19.55;6.75;;;12.20;99.90;;;;;;5066948;28;20709;-79
2023/05/12 05:11:53;;;;;;;19.20;7.20;;;12.20;99.90;;;;;;5064770;28;20105;-79
2023/05/12 05:14:19;;;;;;;21.45;7.18;;;12.30;99.90;;;;;;5097424;28;20112;-79
2023/05/12 05:16:45;;;;;;;20.35;6.28;;;12.30;99.90;;;;;;5066009;28;20382;-79
2023/05/12 05:19:12;;;;;;;19.13;6.28;;;12.30;99.90;;;;;;5097807;28;20048;-79
2023/05/12 05:21:38;;;;;;;25.77;7.32;;;12.30;99.90;;;;;;5047158;28;20048;-79
2023/05/12 05:24:04;;;;;;;22.67;6.57;;;12.30;99.90;;;;;;5050640;28;20043;-79
2023/05/12 05:26:29;;;;;;;23.98;7.70;;;12.30;99.90;;;;;;5065800;28;20805;-79
2023/05/12 05:28:55;;;;;;;22.17;7.22;;;12.40;99.90;;;;;;5062099;28;20033;-79
2023/05/12 05:31:21;;;;;;;23.90;6.82;;;12.40;99.90;;;;;;5096470;28;20120;-79
2023/05/12 05:33:47;;;;;;;26.42;7.85;;;12.40;99.90;;;;;;5067504;28;20029;-79
2023/05/12 05:36:13;;;;;;;26.75;7.38;;;12.40;99.90;;;;;;5068402;28;20037;-79
2023/05/12 05:38:39;;;;;;;21.08;6.65;;;12.40;99.90;;;;;;5067210;28;20265;-79
2023/05/12 05:41:05;;;;;;;22.83;7.97;;;12.40;99.90;;;;;;5067517;28;20665;-79
2023/05/12 05:43:31;;;;;;;24.25;8.13;;;12.40;99.90;;;;;;5065272;28;20041;-79
2023/05/12 05:45:57;;;;;;;25.25;7.55;;;12.50;99.90;;;;;;5047105;28;20041;-79
2023/05/12 05:48:26;;;;;;;23.63;7.15;;;12.50;99.90;;;;;;5100920;28;20037;-79
2023/05/12 05:50:52;;;;;;;25.75;8.15;;;12.50;99.90;;;;;;5051299;28;20482;-79
2023/05/12 05:53:19;;;;;;;23.80;8.30;;;12.40;99.90;;;;;;5070382;28;20028;-79
2023/05/12 05:55:48;;;;;;;20.35;7.07;;;12.50;99.90;;;;;;5054878;28;20040;-79
2023/05/12 05:58:14;;;;;;;24.05;7.70;;;12.50;99.90;;;;;;5060673;28;20028;-79
2023/05/12 06:00:41;;;;;;;21.77;7.63;;;12.50;99.90;;;;;;5057281;28;20037;-79
2023/05/12 06:03:07;;;;;;;20.90;7.10;;;12.50;99.90;;;;;;5050917;28;20090;-79
2023/05/12 06:05:32;;;;;;;21.98;7.72;;;12.50;99.90;;;;;;5056127;28;20129;-79
2023/05/12 06:07:58;;;;;;;25.60;8.32;;;12.50;99.90;;;;;;5053735;28;20051;-79
2023/05/12 06:10:24;;;;;;;27.08;8.43;;;12.50;99.90;;;;;;5036040;28;20040;-79
2023/05/12 06:12:49;;;;;;;21.15;7.72;;;12.50;99.90;;;;;;5054815;28;20425;-79
2023/05/12 06:15:15;;;;;;;26.92;7.97;;;12.50;99.90;;;;;;5097032;28;20032;-81
2023/05/12 06:17:41;;;;;;;23.58;8.55;;;12.60;99.90;;;;;;5066626;28;20536;-79
2023/05/12 06:20:08;;;;;;;21.45;6.93;;;12.50;99.90;;;;;;5098894;28;20052;-79
2023/05/12 06:22:34;;;;;;;21.40;7.13;;;12.50;99.90;;;;;;5082700;28;20094;-79
2023/05/12 06:25:00;;;;;;;26.60;7.93;;;12.60;99.90;;;;;;5066979;28;20070;-80
2023/05/12 06:27:26;;;;;;;24.52;8.02;;;12.50;99.90;;;;;;5040051;28;20052;-79
2023/05/12 06:29:52;;;;;;;22.60;8.10;;;12.60;99.90;;;;;;5055925;28;20118;-79
2023/05/12 06:32:18;;;;;;;27.50;7.40;;;12.50;99.90;;;;;;5099211;28;20045;-79
2023/05/12 06:34:44;;;;;;;23.08;6.95;;;12.50;99.90;;;;;;5044568;28;20662;-79
2023/05/12 06:37:09;;;;;;;22.50;7.95;;;12.60;99.90;;;;;;5052193;28;20052;-80
2023/05/12 06:39:35;;;;;;;22.48;7.10;;;12.50;99.90;;;;;;5045139;28;20367;-79
2023/05/12 06:42:01;;;;;;;24.75;8.52;;;12.50;99.90;;;;;;5049823;28;20036;-79
2023/05/12 06:44:26;;;;;;;17.67;7.18;;;12.50;99.90;;;;;;5043828;28;20044;-79
2023/05/12 06:46:52;;;;;;;21.20;8.52;;;12.50;99.90;;;;;;5064347;28;20127;-79
2023/05/12 06:49:18;;;;;;;23.90;7.72;;;12.60;99.90;;;;;;5065108;28;20039;-79
2023/05/12 06:51:43;;;;;;;28.42;9.23;;;12.50;99.90;;;;;;5062656;28;20556;-79
2023/05/12 06:54:09;;;;;;;20.55;6.50;;;12.50;99.90;;;;;;5055117;28;20097;-79
2023/05/12 06:56:34;;;;;;;22.58;7.43;;;12.50;99.90;;;;;;5049430;28;20076;-79
2023/05/12 06:59:01;;;;;;;25.10;7.57;;;12.50;99.90;;;;;;5061977;28;20115;-79
2023/05/12 07:01:31;;;;;;;23.65;7.65;;;12.50;99.90;;;;;;5060996;28;20055;-79
2023/05/12 07:03:57;;;;;;;26.10;8.32;;;12.50;99.90;;;;;;5061485;28;20504;-79
2023/05/12 07:06:26;;;;;;;23.40;7.72;;;12.50;99.90;;;;;;5039238;28;20102;-79
2023/05/12 07:08:52;;;;;;;22.52;6.80;;;12.50;99.90;;;;;;5059698;28;20044;-79
2023/05/12 07:11:19;;;;;;;23.50;7.18;;;12.50;99.90;;;;;;5076027;28;20182;-79
2023/05/12 07:13:50;;;;;;;25.70;7.90;;;12.50;99.90;;;;;;5068742;28;20036;-79
2023/05/12 07:16:17;;;;;;;22.42;6.60;;;12.50;99.90;;;;;;5093285;28;20040;-79
2023/05/12 07:18:43;;;;;;;22.02;8.05;;;12.50;99.90;;;;;;5045421;28;20033;-79
2023/05/12 07:21:09;;;;;;;18.92;6.53;;;12.60;99.90;;;;;;5065594;28;20692;-79
2023/05/12 07:23:36;;;;;;;19.13;6.93;;;12.60;99.90;;;;;;5067123;28;20036;-79
2023/05/12 07:26:04;;;;;;;22.05;7.47;;;12.60;99.90;;;;;;5032738;28;20167;-78
2023/05/12 07:28:34;;;;;;;19.63;7.15;;;12.60;99.90;;;;;;5068575;28;20518;-79
2023/05/12 07:31:04;;;;;;;19.90;6.47;;;12.70;99.90;;;;;;5040623;28;20036;-80
2023/05/12 07:33:30;;;;;;;22.17;7.50;;;12.70;99.90;;;;;;5082279;28;20086;-80
2023/05/12 07:35:56;;;;;;;24.65;7.15;;;12.70;99.90;;;;;;5082930;28;20045;-80
2023/05/12 07:38:22;;;;;;;21.52;6.88;;;12.80;99.90;;;;;;5082981;28;20479;-79
2023/05/12 07:40:48;;;;;;;21.38;7.40;;;12.80;99.90;;;;;;5096948;28;20057;-79
2023/05/12 07:43:16;;;;;;;17.90;6.53;;;12.90;99.90;;;;;;5048452;28;20049;-80
2023/05/12 07:45:42;;;;;;;19.95;7.65;;;12.90;99.90;;;;;;5041959;28;20036;-80
2023/05/12 07:48:07;;;;;;;20.80;7.10;;;13.00;99.90;;;;;;5068455;28;20040;-80
2023/05/12 07:50:33;;;;;;;23.48;8.40;;;13.10;99.90;;;;;;5069031;28;20487;-80
2023/05/12 07:52:59;;;;;;;20.83;7.18;;;13.20;99.90;;;;;;5102011;28;20122;-80
2023/05/12 07:55:25;;;;;;;23.42;8.00;;;13.20;99.90;;;;;;5068571;28;20171;-79
2023/05/12 07:57:50;;;;;;;21.48;8.02;;;13.30;99.90;;;;;;5067077;28;20036;-80
2023/05/12 08:00:17;;;;;;;19.65;8.13;;;13.30;99.90;;;;;;5099361;28;20037;-80
2023/05/12 08:02:42;;;;;;;23.40;8.20;;;13.40;99.90;;;;;;5068339;28;20044;-80
2023/05/12 08:05:09;;;;;;;24.80;8.00;;;13.40;99.90;;;;;;5102278;28;20037;-80
2023/05/12 08:07:36;;;;;;;23.75;8.32;;;13.40;99.90;;;;;;5102362;28;20048;-80
2023/05/12 08:10:03;;;;;;;22.58;8.63;;;13.50;99.90;;;;;;5085211;28;20363;-80
2023/05/12 08:12:28;;;;;;;21.75;8.32;;;13.50;99.90;;;;;;5051193;28;20123;-80
2023/05/12 08:14:54;;;;;;;22.55;7.93;;;13.60;99.90;;;;;;5064787;28;20466;-80
2023/05/12 08:17:20;;;;;;;30.17;9.23;;;13.60;99.90;;;;;;5067773;28;20486;-80
2023/05/12 08:19:46;;;;;;;18.88;7.03;;;13.70;99.90;;;;;;5085550;28;20032;-80
2023/05/12 08:22:11;;;;;;;21.42;8.43;;;13.70;99.90;;;;;;5101775;28;20051;-80
2023/05/12 08:24:37;;;;;;;20.33;8.32;;;13.80;99.90;;;;;;5049381;28;20037;-80
2023/05/12 08:27:02;;;;;;;19.67;7.95;;;13.90;99.90;;;;;;5047369;28;20056;-80
2023/05/12 08:29:28;;;;;;;18.80;7.07;;;13.90;99.90;;;;;;5068022;28;20033;-80
2023/05/12 08:31:54;;;;;;;21.85;8.60;;;14.00;99.90;;;;;;5067771;28;20047;-80
2023/05/12 08:34:20;;;;;;;18.42;7.68;;;14.00;99.90;;;;;;5068688;28;20036;-80
2023/05/12 08:36:46;;;;;;;21.25;7.88;;;14.10;99.90;;;;;;5068130;28;20102;-80
2023/05/12 08:39:12;;;;;;;20.73;8.93;;;14.10;99.90;;;;;;5068037;28;20048;-80
2023/05/12 08:41:45;;;;;;;22.00;9.20;;;14.20;99.90;;;;;;5049231;28;20079;-80
2023/05/12 08:44:12;;;;;;;20.75;8.40;;;14.10;99.90;;;;;;5064166;28;20037;-80
2023/05/12 08:46:38;;;;;;;18.73;8.18;;;14.20;99.90;;;;;;5063557;28;20044;-80
2023/05/12 08:49:05;;;;;;;19.58;7.35;;;14.30;99.90;;;;;;5067987;28;20037;-80
2023/05/12 08:51:31;;;;;;;21.77;8.20;;;14.30;99.90;;;;;;5101534;28;20044;-80
2023/05/12 08:53:57;;;;;;;20.40;7.57;;;14.40;99.90;;;;;;5055046;28;20075;-80
2023/05/12 08:56:24;;;;;;;19.58;8.05;;;14.50;99.90;;;;;;5056259;28;20032;-79
2023/05/12 08:58:50;;;;;;;17.45;7.93;;;14.60;99.90;;;;;;5042966;28;20444;-79
2023/05/12 09:01:17;;;;;;;19.02;8.25;;;14.60;99.90;;;;;;5044430;28;20032;-79
2023/05/12 09:03:43;;;;;;;19.48;7.55;;;14.60;99.90;;;;;;5057514;28;20047;-80
2023/05/12 09:06:10;;;;;;;18.40;8.35;;;14.70;99.90;;;;;;5057406;28;20608;-80
2023/05/12 09:08:36;;;;;;;22.25;8.65;;;14.70;99.90;;;;;;5055984;28;20578;-80
2023/05/12 09:11:02;;;;;;;19.63;8.73;;;14.80;99.90;;;;;;5060384;28;20514;-80
2023/05/12 09:13:34;;;;;;;18.55;8.07;;;14.90;99.90;;;;;;5036015;28;20040;-79
2023/05/12 09:16:01;;;;;;;15.60;7.57;;;14.90;99.90;;;;;;5043766;28;20041;-79
2023/05/12 09:18:43;;;;;;;17.58;8.25;;;15.00;99.90;;;;;;5058587;28;20123;-79
2023/05/12 09:21:09;;;;;;;19.33;8.25;;;15.00;99.90;;;;;;5088492;28;20040;-79
2023/05/12 09:23:34;;;;;;;19.77;8.85;;;15.00;99.90;;;;;;5061199;28;20547;-79
2023/05/12 09:26:00;;;;;;;17.73;7.75;;;15.10;99.90;;;;;;5060409;28;20402;-78
2023/05/12 09:28:38;;;;;;;18.40;7.72;;;15.10;99.90;;;;;;5061533;28;20051;-79
2023/05/12 09:31:21;;;;;;;18.05;8.35;;;15.10;99.90;;;;;;5062028;28;20510;-79
2023/05/12 09:33:48;;;;;;;19.58;8.48;;;15.20;99.90;;;;;;5089657;28;20082;-79
2023/05/12 09:36:18;;;;;;;16.95;7.35;;;15.20;99.90;;;;;;5051111;28;20040;-80
2023/05/12 09:38:43;;;;;;;20.42;7.90;;;15.30;99.90;;;;;;5043001;28;20124;-79
2023/05/12 09:41:09;;;;;;;19.67;8.88;;;15.30;99.90;;;;;;5061425;28;20131;-79
2023/05/12 09:43:34;;;;;;;17.65;7.32;;;15.30;99.90;;;;;;5044596;28;20043;-79
2023/05/12 09:46:04;;;;;;;14.02;7.05;;;15.40;99.90;;;;;;5079600;28;20042;-79
2023/05/12 09:48:31;;;;;;;13.82;7.00;;;15.50;99.90;;;;;;5042463;28;20193;-79
2023/05/12 09:50:57;;;;;;;13.65;6.88;;;15.50;99.90;;;;;;5060055;28;20037;-79
2023/05/12 09:53:23;;;;;;;14.88;6.65;;;15.50;99.90;;;;;;5073955;28;20052;-79
2023/05/12 09:55:49;;;;;;;14.50;6.43;;;15.60;99.90;;;;;;5059132;28;20037;-79
2023/05/12 09:58:18;;;;;;;16.33;7.70;;;15.60;99.90;;;;;;5063887;28;20060;-78
2023/05/12 10:00:44;;;;;;;16.95;7.20;;;15.70;99.90;;;;;;5042968;28;20089;-78
2023/05/12 10:03:15;;;;;;;15.52;6.57;;;15.70;99.90;;;;;;5059388;28;20045;-76
2023/05/12 10:05:51;;;;;;;15.90;6.85;;;15.70;99.90;;;;;;5055794;28;20052;-80
2023/05/12 10:08:20;;;;;;;;;;;15.70;99.90;;;;;;5089446;28;20033;-79
2023/05/12 10:10:49;;;;;;;11.10;5.22;;;15.80;99.90;;;;;;5058905;28;19921;-80
2023/05/12 10:13:15;;;;;;;10.88;5.65;;;15.80;99.90;;;;;;5060088;28;20481;-79
2023/05/12 10:15:42;;;;;;;15.23;7.22;;;15.90;99.90;;;;;;5058427;28;20410;-82
2023/05/12 10:18:09;;;;;;;15.07;7.35;;;15.90;99.90;;;;;;5055788;28;20040;-78
2023/05/12 10:20:35;;;;;;;17.58;6.90;;;15.90;99.90;;;;;;5061217;28;20481;-79
2023/05/12 10:23:01;;;;;;;15.27;7.30;;;16.00;99.90;;;;;;5059839;28;20771;-78
2023/05/12 10:25:28;;;;;;;13.80;7.28;;;16.00;99.90;;;;;;5045210;28;20037;-79
2023/05/12 10:27:54;;;;;;;14.90;7.60;;;16.10;99.90;;;;;;5059888;28;20053;-79
2023/05/12 10:30:21;;;;;;;17.80;8.25;;;16.10;99.90;;;;;;5060068;28;20040;-79
2023/05/12 10:32:47;;;;;;;18.90;7.85;;;16.20;99.90;;;;;;5043633;28;20048;-79
2023/05/12 10:35:13;;;;;;;12.43;7.03;;;16.20;99.90;;;;;;5064358;28;20036;-79
2023/05/12 10:37:41;;;;;;;15.43;8.13;;;16.20;99.90;;;;;;5063788;28;20106;-79
2023/05/12 10:40:07;;;;;;;13.88;7.18;;;16.30;99.90;;;;;;5063729;28;20043;-79
2023/05/12 10:42:41;;;;;;;15.63;8.32;;;16.30;99.90;;;;;;5060752;28;20305;-79
2023/05/12 10:45:17;;;;;;;15.50;7.75;;;16.40;99.90;;;;;;5057812;28;20127;-79
2023/05/12 10:47:44;;;;;;;15.75;7.60;;;16.40;99.90;;;;;;5096923;28;20145;-79
2023/05/12 10:50:13;;;;;;;13.80;7.68;;;16.50;99.90;;;;;;5062773;28;20045;-79
2023/05/12 10:52:55;;;;;;;16.13;7.80;;;16.50;99.90;;;;;;5050027;28;20472;-79
2023/05/12 10:55:32;;;;;;;13.27;7.28;;;16.50;99.90;;;;;;5092371;28;20501;-80
2023/05/12 10:58:11;;;;;;;15.63;7.82;;;16.60;99.90;;;;;;5063175;28;20043;-79
2023/05/12 11:00:50;;;;;;;16.23;8.52;;;16.70;99.90;;;;;;5037701;28;20044;-81
2023/05/12 11:03:21;;;;;;;13.20;7.53;;;16.80;99.90;;;;;;5075507;28;20044;-83
2023/05/12 11:06:03;;;;;;;15.07;7.55;;;16.80;99.90;;;;;;5096360;28;20048;-83
2023/05/12 11:08:33;;;;;;;12.18;7.15;;;16.90;99.90;;;;;;5046425;28;20044;-82
2023/05/12 11:11:00;;;;;;;11.38;6.43;;;16.90;99.90;;;;;;5043279;28;20086;-82
2023/05/12 11:13:28;;;;;;;12.05;6.97;;;17.00;99.90;;;;;;5044875;28;20185;-81
2023/05/12 11:15:55;;;;;;;10.57;6.38;;;17.00;99.90;;;;;;5057578;28;20441;-79
2023/05/12 11:18:21;;;;;;;14.07;7.03;;;17.00;99.90;;;;;;5063603;28;20036;-78
2023/05/12 11:20:48;;;;;;;12.38;7.00;;;17.00;99.90;;;;;;5059552;28;20040;-78
2023/05/12 11:23:24;;;;;;;14.98;6.45;;;17.00;99.90;;;;;;5064981;28;20044;-79
2023/05/12 11:25:50;;;;;;;13.07;6.75;;;17.10;99.90;;;;;;5057024;28;20053;-78
2023/05/12 11:28:15;;;;;;;13.43;7.13;;;17.10;99.90;;;;;;5040634;28;20057;-78
2023/05/12 11:31:07;;;;;;;13.75;7.13;;;17.10;99.90;;;;;;5060938;28;20051;-78
2023/05/12 11:33:33;;;;;;;11.65;6.50;;;17.20;99.90;;;;;;5085044;28;20407;-78
2023/05/12 11:36:03;;;;;;;11.75;6.68;;;17.30;99.90;;;;;;5058607;28;20540;-78
2023/05/12 11:38:29;;;;;;;9.85;4.47;;;17.50;99.90;;;;;;5046327;28;20060;-78
2023/05/12 11:40:55;;;;;;;6.63;4.03;;;17.50;99.90;;;;;;5059043;28;20071;-78
2023/05/12 11:43:21;;;;;;;7.65;4.35;;;17.50;99.90;;;;;;5036844;28;20032;-78
2023/05/12 11:45:47;;;;;;;7.75;3.90;;;17.50;99.90;;;;;;5084740;28;20048;-78
2023/05/12 11:48:13;;;;;;;8.70;4.95;;;17.70;99.90;;;;;;5040955;28;20187;-79
2023/05/12 11:50:47;;;;;;;8.95;4.75;;;17.60;99.90;;;;;;5058487;28;20646;-78
2023/05/12 11:53:16;;;;;;;7.70;4.10;;;17.70;99.90;;;;;;5040893;28;20094;-78
2023/05/12 11:55:53;;;;;;;7.38;3.47;;;17.70;99.90;;;;;;5062535;28;20112;-78
2023/05/12 11:58:29;;;;;;;5.43;2.97;;;17.70;99.90;;;;;;5042634;28;20044;-79
2023/05/12 12:00:56;;;;;;;5.80;3.45;;;17.80;99.90;;;;;;5060700;28;20457;-79
2023/05/12 12:03:23;;;;;;;6.30;3.53;;;17.80;99.90;;;;;;5052169;28;20119;-78
2023/05/12 12:06:03;;;;;;;6.72;3.40;;;17.80;99.90;;;;;;5082820;28;20043;-78
2023/05/12 12:08:28;;;;;;;8.15;4.32;;;17.80;99.90;;;;;;5053610;28;20048;-79
2023/05/12 12:10:54;;;;;;;9.82;4.97;;;17.90;99.90;;;;;;5063242;28;20375;-78
2023/05/12 12:13:24;;;;;;;7.18;4.32;;;17.90;99.90;;;;;;5047591;28;20028;-79
2023/05/12 12:15:50;;;;;;;9.25;3.40;;;17.90;99.90;;;;;;5060412;28;20123;-78
2023/05/12 12:18:16;;;;;;;6.72;3.70;;;17.90;99.90;;;;;;5064037;28;20039;-78
2023/05/12 12:20:42;;;;;;;4.80;2.80;;;18.00;99.90;;;;;;5059668;28;20037;-79
2023/05/12 12:23:08;;;;;;;3.10;2.05;;;18.00;99.90;;;;;;5058769;28;20044;-78
2023/05/12 12:25:34;;;;;;;7.72;3.63;;;18.00;99.90;;;;;;5057471;28;20387;-79
2023/05/12 12:28:00;;;;;;;7.57;3.88;;;18.00;99.90;;;;;;5056232;28;20561;-79
2023/05/12 12:30:26;;;;;;;6.47;3.10;;;18.00;99.90;;;;;;5058350;28;20040;-78
2023/05/12 12:32:51;;;;;;;3.47;2.15;;;18.10;99.90;;;;;;5059710;28;20493;-79
2023/05/12 12:35:17;;;;;;;5.15;2.47;;;18.20;99.90;;;;;;5056689;28;20025;-79
2023/05/12 12:37:50;;;;;;;4.38;2.28;;;18.10;99.90;;;;;;5040975;28;20033;-79